Time;durP1;ratioP1;P1;durP2;ratioP2;P2;SDS_P1;SDS_P2;PMS_P1;PMS_P2;Temp;Humidity;BMP_temperature;BMP_pressure;BME280_temperature;BME280_humidity;BME280_pressure;Samples;Min_cycle;Max_cycle;Signal;HPM_P1;HPM_P2
2023/08/10 00:02:00;;;;;;;0.10;0.10;;;;;;;20.34;79.46;101293.13;5114750;28;20024;-85
2023/08/10 00:04:26;;;;;;;0.10;0.10;;;;;;;20.37;81.36;101297.34;5079187;28;20080;-86
2023/08/10 00:06:51;;;;;;;0.10;0.10;;;;;;;20.29;81.04;101300.56;5062221;28;20081;-86
2023/08/10 00:09:17;;;;;;;0.10;0.10;;;;;;;20.17;80.34;101280.53;5078888;28;20105;-87
2023/08/10 00:11:42;;;;;;;0.10;0.10;;;;;;;20.24;79.99;101297.44;5095841;28;20080;-86
2023/08/10 00:14:08;;;;;;;0.10;0.10;;;;;;;20.13;79.73;101275.63;5078996;28;20027;-87
2023/08/10 00:16:33;;;;;;;0.10;0.10;;;;;;;20.21;81.75;101292.44;5079108;28;20024;-85
2023/08/10 00:19:00;;;;;;;0.10;0.10;;;;;;;20.22;81.29;101288.03;5079089;28;20035;-85
2023/08/10 00:21:26;;;;;;;0.10;0.10;;;;;;;20.15;81.76;101266.66;5062305;28;20454;-85
2023/08/10 00:23:52;;;;;;;0.10;0.10;;;;;;;20.16;81.79;101278.84;5078854;28;20056;-85
2023/08/10 00:26:17;;;;;;;0.10;0.10;;;;;;;20.00;80.70;101281.84;5095401;28;20050;-85
2023/08/10 00:28:43;;;;;;;0.10;0.10;;;;;;;20.13;80.78;101289.59;5062010;28;20030;-86
2023/08/10 00:31:08;;;;;;;0.10;0.10;;;;;;;20.12;81.66;101287.91;5095889;28;20038;-85
2023/08/10 00:33:34;;;;;;;0.10;0.10;;;;;;;20.11;81.58;101277.53;5078232;28;20547;-87
2023/08/10 00:36:09;;;;;;;0.10;0.10;;;;;;;20.17;82.30;101279.69;5061707;28;20039;-85
2023/08/10 00:38:38;;;;;;;0.10;0.10;;;;;;;20.18;81.42;101282.19;5096118;28;20024;-86
2023/08/10 00:41:03;;;;;;;0.10;0.10;;;;;;;20.10;83.67;101268.81;5078915;28;20515;-86
2023/08/10 00:43:29;;;;;;;0.10;0.10;;;;;;;20.14;84.28;101254.47;5078497;28;20031;-86
2023/08/10 00:45:54;;;;;;;0.10;0.10;;;;;;;20.33;83.31;101264.34;5078273;28;20054;-86
2023/08/10 00:48:21;;;;;;;0.10;0.10;;;;;;;20.39;82.88;101269.13;5061573;28;20083;-88
2023/08/10 00:50:47;;;;;;;0.10;0.10;;;;;;;20.26;79.09;101240.38;5078353;28;20077;-86
2023/08/10 00:53:14;;;;;;;0.10;0.10;;;;;;;20.47;76.88;101273.81;5061600;28;20073;-86
2023/08/10 00:55:39;;;;;;;0.10;0.10;;;;;;;20.33;76.97;101248.59;5078192;28;20112;-86
2023/08/10 00:58:05;;;;;;;0.10;0.10;;;;;;;20.22;77.03;101243.38;5078421;28;20024;-85
2023/08/10 01:00:30;;;;;;;0.10;0.10;;;;;;;20.37;76.84;101268.44;5095138;28;20031;-85
2023/08/10 01:02:56;;;;;;;0.10;0.10;;;;;;;20.40;74.52;101267.34;5094613;28;20531;-87
2023/08/10 01:05:21;;;;;;;0.10;0.10;;;;;;;20.36;75.70;101263.31;5061341;28;20031;-85
2023/08/10 01:08:11;;;;;;;0.10;0.10;;;;;;;20.25;78.07;101267.59;5078117;28;20024;-86
2023/08/10 01:11:06;;;;;;;0.10;0.10;;;;;;;20.19;77.52;101278.59;5098292;28;20032;-86
2023/08/10 01:13:42;;;;;;;0.10;0.10;;;;;;;20.07;77.59;101290.09;5070564;28;20035;-85
2023/08/10 01:16:10;;;;;;;0.10;0.10;;;;;;;20.04;77.56;101296.38;5078145;28;20027;-87
2023/08/10 01:18:36;;;;;;;0.10;0.10;;;;;;;19.83;78.69;101287.56;5078462;28;20027;-88
2023/08/10 01:21:02;;;;;;;0.10;0.10;;;;;;;19.75;78.62;101285.50;5077686;28;20074;-88
2023/08/10 01:23:44;;;;;;;0.10;0.10;;;;;;;19.89;79.01;101312.50;5094952;28;20055;-85
2023/08/10 01:26:09;;;;;;;0.10;0.10;;;;;;;19.92;80.87;101312.28;5078091;28;20024;-86
2023/08/10 01:28:34;;;;;;;0.10;0.10;;;;;;;19.87;79.68;101306.56;5061020;28;20047;-86
2023/08/10 01:31:00;;;;;;;0.10;0.10;;;;;;;19.89;77.85;101312.50;5077668;28;20414;-86
2023/08/10 01:33:26;;;;;;;0.10;0.10;;;;;;;19.84;75.94;101304.16;5077550;28;20040;-87
2023/08/10 01:35:52;;;;;;;0.10;0.10;;;;;;;19.77;76.93;101302.00;5077296;28;20019;-87
2023/08/10 01:38:17;;;;;;;0.10;0.10;;;;;;;19.79;76.85;101308.94;5094258;28;20032;-86
2023/08/10 01:40:43;;;;;;;0.10;0.10;;;;;;;19.73;76.96;101297.09;5077388;28;20055;-85
2023/08/10 01:43:09;;;;;;;0.10;0.10;;;;;;;19.43;78.09;101258.25;5093782;28;20035;-88
2023/08/10 01:45:34;;;;;;;0.10;0.10;;;;;;;19.59;78.56;101286.84;5093376;28;20031;-86
2023/08/10 01:48:06;;;;;;;0.10;0.10;;;;;;;19.59;79.20;101297.34;5060228;28;20059;-87
2023/08/10 01:50:34;;;;;;;0.10;0.10;;;;;;;19.45;78.54;101280.78;5060840;28;20485;-85
2023/08/10 01:53:03;;;;;;;0.10;0.10;;;;;;;19.43;79.70;101290.56;5077490;28;20028;-86
2023/08/10 01:55:29;;;;;;;0.10;0.10;;;;;;;19.41;80.20;101302.16;5060582;28;20041;-85
2023/08/10 01:57:54;;;;;;;0.10;0.10;;;;;;;19.37;78.24;101309.41;5093769;28;20102;-84
2023/08/10 02:00:20;;;;;;;0.10;0.10;;;;;;;19.19;78.78;101292.44;5077368;28;20028;-87
2023/08/10 02:02:45;;;;;;;0.10;0.10;;;;;;;19.19;79.82;101292.44;5093626;28;20077;-86
2023/08/10 02:05:14;;;;;;;0.10;0.10;;;;;;;19.20;78.71;101292.31;5093429;28;20043;-87
2023/08/10 02:07:41;;;;;;;0.10;0.10;;;;;;;19.10;77.28;101272.13;5060929;28;20024;-86
2023/08/10 02:10:07;;;;;;;0.10;0.10;;;;;;;19.14;77.21;101289.28;5093712;28;20101;-86
2023/08/10 02:12:33;;;;;;;0.10;0.10;;;;;;;18.96;76.27;101265.28;5077081;28;20030;-86
2023/08/10 02:14:59;;;;;;;0.10;0.10;;;;;;;19.14;75.83;101282.25;5076549;28;20036;-86
2023/08/10 02:17:25;;;;;;;0.10;0.10;;;;;;;19.03;74.62;101273.53;5093458;28;20027;-85
2023/08/10 02:19:51;;;;;;;0.10;0.10;;;;;;;19.12;75.24;101283.34;5076220;28;20111;-86
2023/08/10 02:22:16;;;;;;;0.10;0.10;;;;;;;19.11;75.96;101282.50;5060078;28;20498;-86
2023/08/10 02:24:42;;;;;;;0.10;0.10;;;;;;;19.10;76.36;101270.34;5093442;28;20409;-86
2023/08/10 02:27:07;;;;;;;0.10;0.10;;;;;;;19.16;74.35;101282.97;5093390;28;20097;-86
2023/08/10 02:29:33;;;;;;;0.10;0.10;;;;;;;19.11;74.14;101290.38;5076425;28;20088;-86
2023/08/10 02:32:00;;;;;;;0.10;0.10;;;;;;;18.98;78.98;101281.75;5092884;28;20036;-86
2023/08/10 02:34:26;;;;;;;0.10;0.10;;;;;;;18.95;79.42;101310.78;5077114;28;20030;-87
2023/08/10 02:36:51;;;;;;;0.10;0.10;;;;;;;18.93;79.74;101312.69;5093068;28;20023;-85
2023/08/10 02:39:16;;;;;;;0.10;0.10;;;;;;;18.95;80.89;101321.28;5093287;28;20024;-86
2023/08/10 02:41:42;;;;;;;0.10;0.10;;;;;;;18.90;81.73;101328.66;5076286;28;20492;-85
2023/08/10 02:44:07;;;;;;;0.10;0.10;;;;;;;18.93;81.54;101338.91;5059579;28;20492;-86
2023/08/10 02:46:33;;;;;;;0.10;0.10;;;;;;;18.85;82.30;101326.34;5075867;28;20459;-86
2023/08/10 02:48:58;;;;;;;0.10;0.10;;;;;;;18.82;82.95;101336.25;5093106;28;20096;-86
2023/08/10 02:51:24;;;;;;;0.10;0.10;;;;;;;18.78;83.58;101351.34;5093019;28;20042;-86
2023/08/10 02:53:49;;;;;;;0.10;0.10;;;;;;;18.70;84.42;101342.38;5093376;28;20036;-85
2023/08/10 02:56:15;;;;;;;0.10;0.10;;;;;;;18.78;84.61;101366.22;5092629;28;20023;-86
2023/08/10 02:58:40;;;;;;;0.10;0.10;;;;;;;18.85;85.46;101373.53;5075976;28;20080;-86
2023/08/10 03:01:06;;;;;;;0.10;0.10;;;;;;;18.88;84.92;101370.72;5075834;28;20092;-86
2023/08/10 03:03:33;;;;;;;0.10;0.10;;;;;;;18.96;84.13;101379.78;5075923;28;20026;-86
2023/08/10 03:05:59;;;;;;;0.10;0.10;;;;;;;18.95;83.67;101378.13;5076389;28;20024;-85
2023/08/10 03:08:24;;;;;;;0.10;0.10;;;;;;;18.76;80.74;101363.72;5092880;28;20038;-86
2023/08/10 03:10:50;;;;;;;0.10;0.10;;;;;;;18.81;81.62;101398.31;5093240;28;20038;-86
2023/08/10 03:13:15;;;;;;;0.10;0.10;;;;;;;18.83;82.55;101395.56;5075880;28;20034;-88
2023/08/10 03:15:41;;;;;;;0.10;0.10;;;;;;;18.83;82.35;101400.81;5075796;28;20432;-86
2023/08/10 03:18:06;;;;;;;0.10;0.10;;;;;;;18.72;82.83;101372.75;5075895;28;20412;-85
2023/08/10 03:20:32;;;;;;;0.10;0.10;;;;;;;18.83;82.68;101385.09;5092852;28;20027;-86
2023/08/10 03:22:57;;;;;;;0.10;0.10;;;;;;;18.77;83.23;101388.97;5092736;28;20081;-86
2023/08/10 03:25:22;;;;;;;0.10;0.10;;;;;;;18.61;82.28;101364.78;5110914;28;20038;-86
2023/08/10 03:27:48;;;;;;;0.10;0.10;;;;;;;18.70;82.24;101384.31;5092512;28;20027;-85
2023/08/10 03:30:14;;;;;;;0.10;0.10;;;;;;;18.72;82.44;101398.97;5058902;28;20481;-86
2023/08/10 03:32:39;;;;;;;0.10;0.10;;;;;;;18.73;81.17;101384.91;5092774;28;20392;-86
2023/08/10 03:35:05;;;;;;;0.10;0.10;;;;;;;18.63;81.88;101366.34;5092339;28;20055;-86
2023/08/10 03:37:31;;;;;;;0.10;0.10;;;;;;;18.69;81.83;101374.78;5075770;28;20059;-85
2023/08/10 03:39:56;;;;;;;0.10;0.10;;;;;;;18.70;82.30;101374.66;5049099;28;20079;-86
2023/08/10 03:42:22;;;;;;;0.10;0.10;;;;;;;18.70;81.38;101385.13;5035662;28;20029;-88
2023/08/10 03:44:47;;;;;;;0.10;0.10;;;;;;;18.66;80.99;101388.06;5051996;28;20033;-87
2023/08/10 03:47:13;;;;;;;0.10;0.10;;;;;;;18.93;79.84;101386.09;5052089;28;20044;-88
2023/08/10 03:49:38;;;;;;;0.10;0.10;;;;;;;19.03;79.58;101397.59;5035545;28;20029;-90
2023/08/10 03:52:04;;;;;;;0.10;0.10;;;;;;;19.07;78.91;101391.19;5052723;28;20032;-88
2023/08/10 03:54:29;;;;;;;0.10;0.10;;;;;;;19.29;78.18;101400.13;5035566;28;20025;-89
2023/08/10 03:56:55;;;;;;;0.10;0.10;;;;;;;19.71;76.40;101389.09;5035599;28;20028;-86
2023/08/10 03:59:21;;;;;;;0.10;0.10;;;;;;;19.84;75.75;101388.16;5051942;28;20036;-88
2023/08/10 04:01:46;;;;;;;0.10;0.10;;;;;;;19.78;76.13;101389.47;5051940;28;20035;-87
2023/08/10 04:04:11;;;;;;;0.10;0.10;;;;;;;19.60;77.03;101375.09;5052147;28;20039;-86
2023/08/10 04:06:37;;;;;;;0.10;0.10;;;;;;;19.88;74.86;101390.47;5051862;28;20090;-86
2023/08/10 04:09:04;;;;;;;0.10;0.10;;;;;;;20.29;73.24;101400.41;5072330;28;20485;-87
2023/08/10 04:11:30;;;;;;;0.10;0.10;;;;;;;20.28;72.98;101390.84;5055487;28;20027;-85
2023/08/10 04:13:55;;;;;;;0.10;0.10;;;;;;;20.52;72.73;101414.41;5055646;28;20036;-85
2023/08/10 04:16:21;;;;;;;0.10;0.10;;;;;;;20.55;72.37;101406.31;5055590;28;20025;-86
2023/08/10 04:18:47;;;;;;;0.10;0.10;;;;;;;20.50;72.27;101418.13;5055010;28;20531;-85
2023/08/10 04:21:13;;;;;;;0.10;0.10;;;;;;;20.19;73.23;101394.19;5054907;28;20082;-86
2023/08/10 04:23:40;;;;;;;0.10;0.10;;;;;;;20.40;72.77;101409.25;5055023;28;20024;-86
2023/08/10 04:26:07;;;;;;;0.10;0.10;;;;;;;20.60;72.44;101409.38;5039612;28;20024;-86
2023/08/10 04:28:32;;;;;;;0.10;0.10;;;;;;;20.61;72.31;101424.22;5039006;28;20029;-88
2023/08/10 04:30:58;;;;;;;0.10;0.10;;;;;;;20.48;72.46;101410.38;5038255;28;20402;-88
2023/08/10 04:33:23;;;;;;;0.20;0.20;;;;;;;20.47;73.25;101413.13;5037746;28;20040;-87
2023/08/10 04:35:49;;;;;;;0.10;0.10;;;;;;;20.45;73.09;101409.75;5038555;28;20099;-86
2023/08/10 04:38:14;;;;;;;0.10;0.10;;;;;;;20.33;73.63;101395.75;5082316;28;20032;-88
2023/08/10 04:40:41;;;;;;;0.10;0.10;;;;;;;20.23;72.92;101413.19;5042031;28;20043;-89
2023/08/10 04:43:06;;;;;;;0.10;0.10;;;;;;;19.93;72.80;101392.72;5055237;28;20036;-88
2023/08/10 04:45:31;;;;;;;0.10;0.10;;;;;;;19.82;75.59;101422.41;5056330;28;20033;-91
2023/08/10 04:47:57;;;;;;;0.10;0.10;;;;;;;19.64;76.37;101421.16;5054961;28;20059;-91
2023/08/10 04:50:23;;;;;;;0.10;0.10;;;;;;;19.53;76.55;101416.69;5039110;28;20025;-90
2023/08/10 04:52:49;;;;;;;0.20;0.20;;;;;;;19.60;77.23;101415.31;5027489;28;20036;-92
2023/08/10 04:55:15;;;;;;;0.10;0.10;;;;;;;19.56;76.91;101399.88;5023303;28;20028;-87
2023/08/10 04:57:40;;;;;;;0.10;0.10;;;;;;;19.47;76.07;101397.00;5038448;28;20587;-89
2023/08/10 05:00:09;;;;;;;0.10;0.10;;;;;;;19.50;75.87;101414.28;5017316;28;20426;-84
2023/08/10 05:02:35;;;;;;;0.10;0.10;;;;;;;19.45;77.23;101419.03;5075026;28;20474;-84
2023/08/10 05:05:02;;;;;;;0.10;0.10;;;;;;;19.31;77.84;101417.44;5052989;28;20484;-88
2023/08/10 05:07:28;;;;;;;0.10;0.10;;;;;;;19.31;77.91;101416.59;5051213;28;20032;-91
2023/08/10 05:09:53;;;;;;;0.10;0.10;;;;;;;19.35;78.49;101426.75;5057669;28;20024;-88
2023/08/10 05:12:19;;;;;;;0.10;0.10;;;;;;;19.42;77.18;101429.75;5056995;28;20028;-87
2023/08/10 05:14:44;;;;;;;0.20;0.20;;;;;;;19.34;77.80;101403.25;5073731;28;20035;-86
2023/08/10 05:17:10;;;;;;;0.10;0.10;;;;;;;19.45;77.18;101432.16;5056967;28;20035;-84
2023/08/10 05:19:36;;;;;;;0.10;0.10;;;;;;;19.36;77.16;101431.03;5059668;28;20047;-85
2023/08/10 05:22:01;;;;;;;0.10;0.10;;;;;;;19.23;77.05;101438.13;5037106;28;20028;-84
2023/08/10 05:24:27;;;;;;;0.10;0.10;;;;;;;19.16;78.03;101437.72;5020505;28;20493;-84
2023/08/10 05:26:52;;;;;;;0.20;0.20;;;;;;;19.09;79.28;101443.53;5054008;28;20032;-83
2023/08/10 05:29:17;;;;;;;0.10;0.10;;;;;;;19.08;78.73;101453.19;5053625;28;20039;-84
2023/08/10 05:31:43;;;;;;;0.10;0.10;;;;;;;19.07;80.08;101461.16;5058805;28;20028;-83
2023/08/10 05:34:08;;;;;;;0.10;0.10;;;;;;;19.12;81.29;101459.06;5075859;28;20054;-88
2023/08/10 05:36:34;;;;;;;0.10;0.10;;;;;;;18.91;80.75;101457.00;5057931;28;20032;-93
2023/08/10 05:38:59;;;;;;;0.10;0.10;;;;;;;18.89;78.99;101460.69;5046745;28;20125;-88
2023/08/10 05:41:25;;;;;;;0.10;0.10;;;;;;;18.88;81.43;101459.03;5073567;28;20040;-89
2023/08/10 05:43:50;;;;;;;0.10;0.10;;;;;;;18.90;80.49;101471.06;5037187;28;20028;-90
2023/08/10 05:46:16;;;;;;;0.10;0.10;;;;;;;18.98;80.51;101473.16;5051412;28;20034;-91
2023/08/10 05:48:41;;;;;;;0.10;0.10;;;;;;;18.74;80.06;101448.66;5037092;28;20374;-88
2023/08/10 05:51:07;;;;;;;0.10;0.10;;;;;;;19.00;80.52;101484.38;5070316;28;20512;-89
2023/08/10 05:53:32;;;;;;;0.10;0.10;;;;;;;19.01;80.42;101479.97;5059716;28;20054;-87
2023/08/10 05:55:58;;;;;;;0.10;0.10;;;;;;;19.01;80.64;101483.41;5055474;28;20098;-89
2023/08/10 05:58:23;;;;;;;0.10;0.10;;;;;;;19.00;81.26;101489.63;5041787;28;20033;-89
2023/08/10 06:00:48;;;;;;;0.10;0.10;;;;;;;19.05;81.50;101499.75;5046487;28;20079;-90
2023/08/10 06:03:14;;;;;;;0.10;0.10;;;;;;;19.06;81.46;101489.16;5042233;28;20037;-88
2023/08/10 06:05:40;;;;;;;0.10;0.10;;;;;;;19.05;81.08;101492.72;5030605;28;20027;-92
2023/08/10 06:08:07;;;;;;;0.10;0.10;;;;;;;19.07;80.51;101496.06;5053488;28;20503;-91
2023/08/10 06:10:33;;;;;;;0.10;0.10;;;;;;;18.97;80.25;101497.69;5076500;28;20041;-87
2023/08/10 06:12:58;;;;;;;0.10;0.10;;;;;;;18.79;80.64;101506.84;5066755;28;20464;-89
2023/08/10 06:15:24;;;;;;;0.10;0.10;;;;;;;18.79;80.80;101499.81;5038425;28;20028;-92
2023/08/10 06:17:49;;;;;;;0.10;0.10;;;;;;;18.64;81.96;101498.22;5033006;28;20051;-87
2023/08/10 06:23:17;;;;;;;0.10;0.10;;;;;;;18.72;81.32;101513.47;5154989;22;20151;-93
2023/08/10 06:25:43;;;;;;;0.10;0.10;;;;;;;18.63;82.49;101518.34;5023384;28;20035;-90
2023/08/10 06:28:08;;;;;;;0.10;0.10;;;;;;;18.66;81.80;101521.72;5038823;28;20024;-92
2023/08/10 06:30:34;;;;;;;0.10;0.10;;;;;;;18.65;81.40;101514.81;5022928;28;20040;-89
2023/08/10 06:32:59;;;;;;;0.10;0.10;;;;;;;18.60;81.85;101494.97;5032932;28;20024;-86
2023/08/10 06:35:25;;;;;;;0.10;0.10;;;;;;;18.48;82.29;101506.28;5074135;28;20035;-92
2023/08/10 06:37:51;;;;;;;0.10;0.10;;;;;;;18.56;82.08;101503.16;5044289;28;20086;-90
2023/08/10 06:40:16;;;;;;;0.10;0.10;;;;;;;18.63;82.72;101515.72;5055037;28;20498;-92
2023/08/10 06:42:42;;;;;;;0.10;0.10;;;;;;;18.72;81.27;101508.22;5040416;28;20085;-89
2023/08/10 06:45:08;;;;;;;0.10;0.10;;;;;;;18.83;81.56;101518.78;5052270;28;20025;-88
2023/08/10 06:47:37;;;;;;;0.10;0.10;;;;;;;18.81;82.12;101502.34;5064864;28;20036;-93
2023/08/10 06:50:04;;;;;;;0.13;0.13;;;;;;;18.87;81.26;101507.13;5042176;28;20459;-87
2023/08/10 06:52:29;;;;;;;0.10;0.10;;;;;;;18.92;81.15;101499.78;5056519;28;20120;-88
2023/08/10 06:54:55;;;;;;;0.10;0.10;;;;;;;19.17;79.61;101515.50;5039834;28;20031;-92
2023/08/10 06:57:20;;;;;;;0.10;0.10;;;;;;;19.19;79.40;101497.84;5047877;28;20036;-91
2023/08/10 06:59:46;;;;;;;0.10;0.10;;;;;;;19.34;78.47;101518.69;5039373;28;20020;-85
2023/08/10 07:02:12;;;;;;;0.10;0.10;;;;;;;19.30;78.20;101512.81;5067028;28;20500;-86
2023/08/10 07:04:37;;;;;;;0.10;0.10;;;;;;;19.41;79.56;101519.94;5106200;28;20028;-86
2023/08/10 07:07:03;;;;;;;0.10;0.10;;;;;;;19.58;79.10;101519.59;5057169;28;20477;-87
2023/08/10 07:09:28;;;;;;;0.10;0.10;;;;;;;19.69;77.67;101496.00;5055861;28;20032;-91
2023/08/10 07:11:54;;;;;;;0.10;0.10;;;;;;;19.71;78.04;101499.34;5035572;28;20024;-89
2023/08/10 07:14:19;;;;;;;0.10;0.10;;;;;;;19.91;76.83;101520.69;5072138;28;20024;-91
2023/08/10 07:16:45;;;;;;;0.10;0.10;;;;;;;19.92;77.40;101517.09;5036818;28;20024;-90
2023/08/10 07:19:11;;;;;;;0.10;0.10;;;;;;;19.77;77.89;101514.66;5053699;28;20024;-92
2023/08/10 07:21:37;;;;;;;0.10;0.10;;;;;;;19.71;78.03;101515.09;5030915;28;20024;-92
2023/08/10 07:24:05;;;;;;;0.10;0.10;;;;;;;19.73;78.67;101523.69;5485976;22;20023;-92
2023/08/10 07:26:32;;;;;;;0.10;0.10;;;;;;;19.72;78.78;101518.56;5095815;22;20417;-92
2023/08/10 07:28:57;;;;;;;0.10;0.10;;;;;;;19.80;79.91;101502.25;5161868;22;20058;-91
2023/08/10 07:31:28;;;;;;;0.10;0.10;;;;;;;20.15;78.21;101518.84;5090524;28;20024;-90
2023/08/10 07:33:54;;;;;;;0.10;0.10;;;;;;;19.89;79.90;101510.28;5079428;28;20039;-88
2023/08/10 07:36:19;;;;;;;0.10;0.10;;;;;;;19.97;80.28;101520.25;5074414;28;20058;-86
2023/08/10 07:38:45;;;;;;;0.10;0.10;;;;;;;19.94;80.22;101515.19;5090695;28;20035;-86
2023/08/10 07:41:10;;;;;;;0.10;0.10;;;;;;;19.96;78.73;101519.41;5109731;28;20031;-92
2023/08/10 07:43:36;;;;;;;0.10;0.10;;;;;;;19.70;79.79;101521.31;5073705;28;20028;-91
2023/08/10 07:46:02;;;;;;;0.10;0.10;;;;;;;19.86;79.22;101507.03;5081139;28;20451;-92
2023/08/10 07:48:28;;;;;;;0.10;0.10;;;;;;;20.05;79.83;101528.34;5088077;28;20036;-92
2023/08/10 07:50:54;;;;;;;0.10;0.10;;;;;;;20.23;77.73;101526.16;5077137;28;20028;-91
2023/08/10 07:53:20;;;;;;;0.10;0.10;;;;;;;20.37;76.92;101533.00;5091485;28;20551;-88
2023/08/10 07:55:45;;;;;;;0.10;0.10;;;;;;;20.47;77.44;101528.75;5096585;28;20030;-89
2023/08/10 07:58:12;;;;;;;0.10;0.10;;;;;;;20.66;75.36;101536.91;5098171;28;21107;-89
2023/08/10 08:00:38;;;;;;;0.10;0.10;;;;;;;20.55;73.90;101511.44;5098271;28;20027;-86
2023/08/10 08:03:08;;;;;;;0.10;0.10;;;;;;;20.86;75.03;101536.22;5086415;28;20052;-89
2023/08/10 08:05:37;;;;;;;0.10;0.10;;;;;;;21.03;72.26;101536.66;5097879;28;20492;-92
2023/08/10 08:08:04;;;;;;;0.10;0.10;;;;;;;21.24;72.74;101527.09;5066928;28;20428;-89
2023/08/10 08:10:29;;;;;;;0.20;0.20;;;;;;;21.33;69.03;101529.00;5094373;28;20118;-84
2023/08/10 08:12:55;;;;;;;0.20;0.20;;;;;;;21.38;68.67;101537.38;5109139;28;20081;-92
2023/08/10 08:15:21;;;;;;;0.10;0.10;;;;;;;20.92;68.82;101492.78;5081332;28;20024;-92
2023/08/10 08:18:24;;;;;;;0.10;0.10;;;;;;;21.33;70.40;101536.88;5074723;28;20028;-91
2023/08/10 08:20:49;;;;;;;0.10;0.10;;;;;;;21.39;69.67;101538.22;5076092;28;20060;-91
2023/08/10 08:23:15;;;;;;;0.10;0.10;;;;;;;21.53;70.13;101539.72;5059104;28;20032;-88
2023/08/10 08:25:40;;;;;;;0.10;0.10;;;;;;;21.71;69.07;101554.88;5075172;28;20028;-87
2023/08/10 08:28:06;;;;;;;0.10;0.10;;;;;;;22.34;66.83;101552.38;5058770;28;20048;-89
2023/08/10 08:30:31;;;;;;;0.10;0.10;;;;;;;22.44;63.06;101547.16;5090832;28;20028;-88
2023/08/10 08:32:57;;;;;;;0.10;0.10;;;;;;;22.20;64.43;101531.59;5094406;28;20030;-91
2023/08/10 08:35:24;;;;;;;0.10;0.10;;;;;;;22.13;65.83;101543.63;5094391;27;20027;-92
2023/08/10 08:37:51;;;;;;;0.10;0.10;;;;;;;21.92;65.52;101535.63;5100715;27;20081;-91
2023/08/10 08:40:16;;;;;;;0.10;0.10;;;;;;;21.90;65.46;101537.56;5117546;27;20045;-91
2023/08/10 08:42:42;;;;;;;0.17;0.17;;;;;;;21.84;66.17;101544.19;5094213;27;20027;-92
2023/08/10 08:45:08;;;;;;;0.10;0.10;;;;;;;21.77;63.98;101538.59;5086691;28;20417;-91
2023/08/10 08:47:33;;;;;;;0.10;0.10;;;;;;;21.80;65.46;101542.75;5076695;28;20032;-90
2023/08/10 08:49:59;;;;;;;0.17;0.17;;;;;;;21.87;66.51;101527.28;5069395;28;20127;-87
2023/08/10 08:52:24;;;;;;;0.13;0.13;;;;;;;22.01;64.90;101538.34;5100106;27;20034;-92
2023/08/10 08:54:50;;;;;;;0.10;0.10;;;;;;;22.08;64.86;101538.72;5091953;28;20032;-91
2023/08/10 08:57:15;;;;;;;0.10;0.10;;;;;;;22.25;62.71;101542.59;5092503;28;20059;-89
2023/08/10 08:59:41;;;;;;;0.10;0.10;;;;;;;22.54;63.40;101542.78;5088161;27;20541;-91
2023/08/10 09:02:08;;;;;;;0.10;0.10;;;;;;;22.50;62.70;101526.34;5075258;28;20047;-92
2023/08/10 09:04:33;;;;;;;0.10;0.10;;;;;;;22.42;63.39;101534.13;5096410;27;20484;-89
2023/08/10 09:06:59;;;;;;;0.10;0.10;;;;;;;22.68;63.21;101534.50;5095178;28;20039;-93
2023/08/10 09:09:25;;;;;;;0.13;0.13;;;;;;;22.90;61.62;101550.19;5064343;28;20500;-90
2023/08/10 09:11:50;;;;;;;0.10;0.10;;;;;;;23.03;61.06;101539.44;5062461;28;20480;-87
2023/08/10 09:14:16;;;;;;;0.10;0.10;;;;;;;23.27;60.54;101557.53;5096090;27;20019;-91
2023/08/10 09:16:44;;;;;;;0.10;0.10;;;;;;;23.27;59.10;101532.94;5063081;28;20031;-88
2023/08/10 09:19:12;;;;;;;0.10;0.10;;;;;;;23.29;59.74;101554.75;5091241;28;20032;-88
2023/08/10 09:21:38;;;;;;;0.10;0.10;;;;;;;23.30;59.99;101554.63;5091465;28;20028;-90
2023/08/10 09:24:04;;;;;;;0.10;0.10;;;;;;;23.28;59.51;101558.38;5069167;28;20036;-92
2023/08/10 09:26:29;;;;;;;0.10;0.10;;;;;;;23.07;59.34;101554.00;5058826;28;20035;-91
2023/08/10 09:28:55;;;;;;;0.10;0.10;;;;;;;23.25;59.20;101564.78;5110760;22;20055;-94
2023/08/10 09:31:25;;;;;;;0.20;0.20;;;;;;;22.93;58.53;101543.00;5077989;28;20058;-92
2023/08/10 09:33:57;;;;;;;0.10;0.10;;;;;;;22.85;58.67;101564.75;5071614;28;20122;-91
2023/08/10 09:36:27;;;;;;;0.10;0.10;;;;;;;23.00;60.26;101565.22;5022608;28;20039;-92
2023/08/10 09:38:53;;;;;;;0.10;0.10;;;;;;;22.88;59.98;101556.56;5039656;28;20028;-92
2023/08/10 09:41:20;;;;;;;0.10;0.10;;;;;;;22.67;60.51;101539.91;5038424;28;20123;-90
2023/08/10 09:43:46;;;;;;;0.10;0.10;;;;;;;22.63;60.51;101546.44;5012837;28;20132;-89
2023/08/10 09:46:13;;;;;;;0.10;0.10;;;;;;;22.67;60.77;101547.84;5034138;28;20108;-93
2023/08/10 09:48:46;;;;;;;0.10;0.10;;;;;;;22.64;61.18;101542.84;5024573;28;20109;-90
2023/08/10 09:51:14;;;;;;;0.10;0.10;;;;;;;22.68;62.38;101545.06;5079424;28;20040;-93
2023/08/10 09:53:40;;;;;;;0.20;0.20;;;;;;;22.81;61.12;101544.84;5160491;23;20076;-91
2023/08/10 09:56:09;;;;;;;0.10;0.10;;;;;;;22.81;60.50;101544.84;5020724;28;20041;-90
2023/08/10 09:58:38;;;;;;;0.20;0.20;;;;;;;22.95;62.18;101541.88;5026735;28;20016;-92
2023/08/10 10:01:08;;;;;;;0.10;0.10;;;;;;;22.78;59.81;101539.84;5040249;28;20040;-93
2023/08/10 10:03:33;;;;;;;0.10;0.10;;;;;;;22.73;61.60;101542.03;5032643;28;20319;-91
2023/08/10 10:06:01;;;;;;;0.10;0.10;;;;;;;22.61;62.75;101543.91;5032453;28;20064;-92
2023/08/10 10:08:31;;;;;;;0.20;0.20;;;;;;;22.66;62.64;101540.88;5028043;28;20020;-90
2023/08/10 10:10:58;;;;;;;0.10;0.10;;;;;;;22.99;61.33;101542.44;5031347;28;20030;-89
2023/08/10 10:13:24;;;;;;;0.10;0.10;;;;;;;23.11;61.65;101546.69;5048814;28;20029;-91
2023/08/10 10:15:49;;;;;;;0.10;0.10;;;;;;;22.81;61.93;101536.91;5031447;28;20040;-90
2023/08/10 10:18:15;;;;;;;0.10;0.10;;;;;;;22.90;60.97;101533.53;5054742;28;20083;-93
2023/08/10 10:20:42;;;;;;;0.10;0.10;;;;;;;23.16;61.84;101544.47;5038447;28;20032;-89
2023/08/10 10:23:14;;;;;;;0.10;0.10;;;;;;;23.22;61.41;101543.09;5054261;28;20032;-93
2023/08/10 10:25:40;;;;;;;0.10;0.10;;;;;;;23.17;60.39;101541.69;5054171;28;20032;-86
2023/08/10 10:28:13;;;;;;;0.10;0.10;;;;;;;23.40;60.40;101521.19;5052481;28;20028;-88
2023/08/10 10:30:41;;;;;;;0.10;0.10;;;;;;;23.47;59.17;101524.09;5032832;28;20107;-86
2023/08/10 10:33:09;;;;;;;0.20;0.20;;;;;;;23.59;59.50;101530.94;5031015;28;20176;-89
2023/08/10 10:35:34;;;;;;;0.10;0.10;;;;;;;23.56;59.01;101530.38;5033333;28;20514;-84
2023/08/10 10:38:00;;;;;;;0.10;0.10;;;;;;;23.51;58.22;101522.88;5049889;28;20033;-85
2023/08/10 10:40:26;;;;;;;0.10;0.10;;;;;;;23.49;59.79;101514.22;5033620;28;20028;-87
2023/08/10 10:43:14;;;;;;;0.10;0.10;;;;;;;23.66;59.60;101521.50;5032795;28;20044;-90
2023/08/10 10:45:41;;;;;;;0.10;0.10;;;;;;;23.58;60.37;101494.91;5017367;28;20025;-87
2023/08/10 10:48:06;;;;;;;0.20;0.20;;;;;;;23.78;59.15;101498.41;5017550;28;20061;-91
2023/08/10 10:50:32;;;;;;;0.10;0.10;;;;;;;23.94;59.61;101513.72;5016764;28;20455;-87
2023/08/10 10:53:01;;;;;;;0.10;0.10;;;;;;;23.87;58.94;101504.69;5043385;28;20479;-89
2023/08/10 10:55:33;;;;;;;0.20;0.20;;;;;;;23.98;58.80;101496.59;5047392;28;20452;-91
2023/08/10 10:58:00;;;;;;;0.10;0.10;;;;;;;24.00;60.01;101514.00;5032999;28;20517;-93
2023/08/10 11:00:26;;;;;;;0.10;0.10;;;;;;;24.04;59.64;101511.91;5067993;28;20111;-88
2023/08/10 11:02:52;;;;;;;0.10;0.10;;;;;;;24.05;59.64;101516.22;5042082;28;20445;-89
2023/08/10 11:05:18;;;;;;;0.10;0.10;;;;;;;24.04;60.22;101509.25;5047858;28;20033;-90
2023/08/10 11:07:53;;;;;;;0.20;0.20;;;;;;;23.77;58.79;101527.63;5047310;28;20036;-92
2023/08/10 11:10:19;;;;;;;0.10;0.10;;;;;;;23.81;59.18;101518.47;5050615;28;20033;-88
2023/08/10 11:12:47;;;;;;;0.20;0.20;;;;;;;23.85;60.01;101515.41;5033271;28;20108;-92
2023/08/10 11:15:13;;;;;;;0.20;0.20;;;;;;;23.79;57.83;101521.22;5038172;28;20025;-92
2023/08/10 11:17:42;;;;;;;0.10;0.10;;;;;;;23.86;56.03;101517.06;5038723;28;20032;-91
2023/08/10 11:20:12;;;;;;;0.10;0.10;;;;;;;23.85;57.60;101525.97;5052427;28;20043;-91
2023/08/10 11:22:43;;;;;;;0.10;0.10;;;;;;;23.73;58.18;101521.81;5064410;28;20034;-92
2023/08/10 11:25:12;;;;;;;0.20;0.20;;;;;;;23.79;56.99;101521.22;5046371;28;20044;-93